EGLC/LCY METAR and TAF weather

Enter ICAO airport designator
Station Type Date Time Source
EGLC METAR 2019/12/14 19:20 UTC NOAA

EGLC 141920Z AUTO 19005KT 150V220 9999 FEW040 07/01 Q0993


Station Type Date Time Source
EGLC Decoded METAR 2019/12/14 19:20 UTC NOAA

London City Airport, United Kingdom (EGLC) 51-30N 000-30W
Dec 14, 2019 - 02:20 PM EST / 2019.12.14 1920 UTC
Wind: from the S (190 degrees) at 6 MPH (5 KT) (direction variable):0
Visibility: greater than 7 mile(s):0
Sky conditions: mostly clear
Temperature: 44 F (7 C)
Dew Point: 33 F (1 C)
Relative Humidity: 65%
Pressure (altimeter): 29.32 in. Hg (0993 hPa)
ob: EGLC 141920Z AUTO 19005KT 150V220 9999 FEW040 07/01 Q0993
cycle: 19

Station Type Date Time Source
EGLC TAF 2018/10/15 21:30 UTC NOAA

TAF EGLC 152119Z 1521/1621 CNL

Example: see airport list